sensor_id;sensor_type;location;lat;lon;timestamp;pressure;altitude;pressure_sealevel;temperature;humidity
16190;BME280;41754;51.498;7.540;2023-06-22T00:01:22;100602.59;;;20.78;55.78
16190;BME280;41754;51.498;7.540;2023-06-22T00:03:50;100601.78;;;20.77;56.04
16190;BME280;41754;51.498;7.540;2023-06-22T00:06:19;100596.91;;;20.72;56.21
16190;BME280;41754;51.498;7.540;2023-06-22T00:08:46;100595.88;;;20.65;56.21
16190;BME280;41754;51.498;7.540;2023-06-22T00:11:14;100589.53;;;20.66;56.57
16190;BME280;41754;51.498;7.540;2023-06-22T00:13:42;100591.88;;;20.69;56.19
16190;BME280;41754;51.498;7.540;2023-06-22T00:16:10;100607.38;;;20.66;56.46
16190;BME280;41754;51.498;7.540;2023-06-22T00:18:39;100605.50;;;20.58;57.04
16190;BME280;41754;51.498;7.540;2023-06-22T00:21:13;100604.72;;;20.48;57.42
16190;BME280;41754;51.498;7.540;2023-06-22T00:23:41;100599.38;;;20.48;57.29
16190;BME280;41754;51.498;7.540;2023-06-22T00:26:09;100593.72;;;20.51;57.10
16190;BME280;41754;51.498;7.540;2023-06-22T00:28:37;100590.69;;;20.46;57.43
16190;BME280;41754;51.498;7.540;2023-06-22T00:31:05;100590.84;;;20.44;57.69
16190;BME280;41754;51.498;7.540;2023-06-22T00:33:33;100590.78;;;20.36;57.81
16190;BME280;41754;51.498;7.540;2023-06-22T00:36:06;100594.03;;;20.39;57.72
16190;BME280;41754;51.498;7.540;2023-06-22T00:38:36;100599.50;;;20.38;57.49
16190;BME280;41754;51.498;7.540;2023-06-22T00:41:07;100600.66;;;20.35;57.90
16190;BME280;41754;51.498;7.540;2023-06-22T00:43:35;100596.47;;;20.33;58.12
16190;BME280;41754;51.498;7.540;2023-06-22T00:46:03;100601.59;;;20.26;58.33
16190;BME280;41754;51.498;7.540;2023-06-22T00:48:31;100600.53;;;20.19;58.75
16190;BME280;41754;51.498;7.540;2023-06-22T00:50:59;100604.06;;;20.19;58.94
16190;BME280;41754;51.498;7.540;2023-06-22T00:53:29;100596.88;;;20.20;58.99
16190;BME280;41754;51.498;7.540;2023-06-22T00:55:59;100595.50;;;20.16;58.94
16190;BME280;41754;51.498;7.540;2023-06-22T00:58:30;100600.47;;;20.11;59.37
16190;BME280;41754;51.498;7.540;2023-06-22T01:00:57;100599.47;;;20.12;58.93
16190;BME280;41754;51.498;7.540;2023-06-22T01:03:26;100596.13;;;20.10;59.41
16190;BME280;41754;51.498;7.540;2023-06-22T01:06:00;100597.13;;;20.09;59.33
16190;BME280;41754;51.498;7.540;2023-06-22T01:08:34;100595.91;;;20.03;59.76
16190;BME280;41754;51.498;7.540;2023-06-22T01:11:10;100594.00;;;19.95;60.47
16190;BME280;41754;51.498;7.540;2023-06-22T01:13:44;100596.00;;;19.93;60.43
16190;BME280;41754;51.498;7.540;2023-06-22T01:16:16;100594.06;;;19.86;60.34
16190;BME280;41754;51.498;7.540;2023-06-22T01:18:47;100597.44;;;19.88;60.48
16190;BME280;41754;51.498;7.540;2023-06-22T01:21:19;100589.28;;;19.89;60.22
16190;BME280;41754;51.498;7.540;2023-06-22T01:23:56;100586.63;;;19.89;59.94
16190;BME280;41754;51.498;7.540;2023-06-22T01:26:37;100579.50;;;19.80;60.84
16190;BME280;41754;51.498;7.540;2023-06-22T01:29:10;100583.00;;;19.80;61.14
16190;BME280;41754;51.498;7.540;2023-06-22T01:31:41;100579.50;;;19.80;60.85
16190;BME280;41754;51.498;7.540;2023-06-22T01:34:12;100587.38;;;19.81;61.05
16190;BME280;41754;51.498;7.540;2023-06-22T01:36:40;100591.78;;;19.73;61.34
16190;BME280;41754;51.498;7.540;2023-06-22T01:39:08;100589.09;;;19.73;61.64
16190;BME280;41754;51.498;7.540;2023-06-22T01:41:38;100576.72;;;19.72;61.32
16190;BME280;41754;51.498;7.540;2023-06-22T01:44:08;100578.56;;;19.71;61.86
16190;BME280;41754;51.498;7.540;2023-06-22T01:46:37;100580.38;;;19.71;61.75
16190;BME280;41754;51.498;7.540;2023-06-22T01:49:06;100580.09;;;19.74;61.52
16190;BME280;41754;51.498;7.540;2023-06-22T01:51:35;100580.38;;;19.71;61.82
16190;BME280;41754;51.498;7.540;2023-06-22T01:54:06;100584.06;;;19.70;61.42
16190;BME280;41754;51.498;7.540;2023-06-22T01:56:34;100572.38;;;19.71;61.25
16190;BME280;41754;51.498;7.540;2023-06-22T01:59:08;100576.19;;;19.68;61.91
16190;BME280;41754;51.498;7.540;2023-06-22T02:01:42;100582.38;;;19.69;62.05
16190;BME280;41754;51.498;7.540;2023-06-22T02:04:14;100584.22;;;19.68;62.01
16190;BME280;41754;51.498;7.540;2023-06-22T02:06:46;100577.03;;;19.69;61.78
16190;BME280;41754;51.498;7.540;2023-06-22T02:09:17;100575.59;;;19.56;62.49
16190;BME280;41754;51.498;7.540;2023-06-22T02:11:47;100580.53;;;19.51;62.92
16190;BME280;41754;51.498;7.540;2023-06-22T02:14:18;100570.56;;;19.53;62.97
16190;BME280;41754;51.498;7.540;2023-06-22T02:16:49;100581.91;;;19.55;62.86
16190;BME280;41754;51.498;7.540;2023-06-22T02:19:22;100570.56;;;19.53;63.73
16190;BME280;41754;51.498;7.540;2023-06-22T02:21:52;100576.88;;;19.52;63.52
16190;BME280;41754;51.498;7.540;2023-06-22T02:24:20;100581.38;;;19.52;63.25
16190;BME280;41754;51.498;7.540;2023-06-22T02:26:50;100574.81;;;19.46;63.86
16190;BME280;41754;51.498;7.540;2023-06-22T02:29:18;100566.72;;;19.38;64.16
16190;BME280;41754;51.498;7.540;2023-06-22T02:31:45;100572.06;;;19.38;64.33
16190;BME280;41754;51.498;7.540;2023-06-22T02:34:15;100562.22;;;19.38;64.26
16190;BME280;41754;51.498;7.540;2023-06-22T02:36:45;100562.53;;;19.35;64.12
16190;BME280;41754;51.498;7.540;2023-06-22T02:39:19;100560.72;;;19.36;64.62
16190;BME280;41754;51.498;7.540;2023-06-22T02:41:47;100560.16;;;19.32;64.30
16190;BME280;41754;51.498;7.540;2023-06-22T02:44:15;100556.56;;;19.23;65.05
16190;BME280;41754;51.498;7.540;2023-06-22T02:46:43;100557.56;;;19.22;64.92
16190;BME280;41754;51.498;7.540;2023-06-22T02:49:12;100550.75;;;19.10;65.74
16190;BME280;41754;51.498;7.540;2023-06-22T02:51:44;100557.88;;;19.19;65.07
16190;BME280;41754;51.498;7.540;2023-06-22T02:54:13;100560.81;;;19.16;65.52
16190;BME280;41754;51.498;7.540;2023-06-22T02:56:41;100554.66;;;19.16;65.53
16190;BME280;41754;51.498;7.540;2023-06-22T02:59:11;100548.94;;;19.11;65.63
16190;BME280;41754;51.498;7.540;2023-06-22T03:01:39;100550.22;;;19.06;65.87
16190;BME280;41754;51.498;7.540;2023-06-22T03:04:26;100548.56;;;19.05;66.16
16190;BME280;41754;51.498;7.540;2023-06-22T03:06:55;100547.84;;;19.03;66.17
16190;BME280;41754;51.498;7.540;2023-06-22T03:09:23;100553.88;;;19.05;66.13
16190;BME280;41754;51.498;7.540;2023-06-22T03:11:51;100547.41;;;19.08;65.60
16190;BME280;41754;51.498;7.540;2023-06-22T03:14:20;100542.34;;;19.05;66.11
16190;BME280;41754;51.498;7.540;2023-06-22T03:16:47;100544.03;;;19.06;65.72
16190;BME280;41754;51.498;7.540;2023-06-22T03:19:17;100539.31;;;19.00;66.47
16190;BME280;41754;51.498;7.540;2023-06-22T03:21:46;100537.94;;;18.96;66.70
16190;BME280;41754;51.498;7.540;2023-06-22T03:24:15;100544.78;;;18.98;66.86
16190;BME280;41754;51.498;7.540;2023-06-22T03:26:43;100545.22;;;18.94;67.05
16190;BME280;41754;51.498;7.540;2023-06-22T03:29:13;100543.25;;;18.96;66.83
16190;BME280;41754;51.498;7.540;2023-06-22T03:31:41;100539.06;;;18.93;67.34
16190;BME280;41754;51.498;7.540;2023-06-22T03:34:09;100544.91;;;18.97;67.00
16190;BME280;41754;51.498;7.540;2023-06-22T03:36:37;100538.31;;;19.01;66.59
16190;BME280;41754;51.498;7.540;2023-06-22T03:39:05;100543.50;;;19.02;66.60
16190;BME280;41754;51.498;7.540;2023-06-22T03:41:34;100541.97;;;19.00;66.80
16190;BME280;41754;51.498;7.540;2023-06-22T03:44:02;100542.66;;;19.02;66.92
16190;BME280;41754;51.498;7.540;2023-06-22T03:46:30;100547.41;;;19.08;66.99
16190;BME280;41754;51.498;7.540;2023-06-22T03:48:58;100541.91;;;19.09;67.60
16190;BME280;41754;51.498;7.540;2023-06-22T03:51:28;100549.63;;;19.13;67.21
16190;BME280;41754;51.498;7.540;2023-06-22T03:53:56;100540.63;;;19.14;67.50
16190;BME280;41754;51.498;7.540;2023-06-22T03:56:24;100544.13;;;19.14;66.47
16190;BME280;41754;51.498;7.540;2023-06-22T03:58:53;100545.13;;;19.13;66.78
16190;BME280;41754;51.498;7.540;2023-06-22T04:01:21;100527.75;;;19.09;66.92
16190;BME280;41754;51.498;7.540;2023-06-22T04:03:49;100533.91;;;19.09;67.02
16190;BME280;41754;51.498;7.540;2023-06-22T04:06:17;100523.00;;;19.03;67.14
16190;BME280;41754;51.498;7.540;2023-06-22T04:08:45;100528.09;;;18.96;67.15
16190;BME280;41754;51.498;7.540;2023-06-22T04:11:14;100521.78;;;19.15;67.08
16190;BME280;41754;51.498;7.540;2023-06-22T04:13:42;100525.66;;;19.31;66.39
16190;BME280;41754;51.498;7.540;2023-06-22T04:16:11;100521.97;;;19.32;66.55
16190;BME280;41754;51.498;7.540;2023-06-22T04:18:39;100516.56;;;19.41;66.33
16190;BME280;41754;51.498;7.540;2023-06-22T04:21:09;100517.78;;;19.47;66.11
16190;BME280;41754;51.498;7.540;2023-06-22T04:23:37;100513.53;;;19.54;65.89
16190;BME280;41754;51.498;7.540;2023-06-22T04:26:05;100522.44;;;19.45;66.11
16190;BME280;41754;51.498;7.540;2023-06-22T04:28:33;100527.78;;;19.45;66.09
16190;BME280;41754;51.498;7.540;2023-06-22T04:31:01;100530.00;;;19.68;65.63
16190;BME280;41754;51.498;7.540;2023-06-22T04:33:31;100533.44;;;19.78;65.04
16190;BME280;41754;51.498;7.540;2023-06-22T04:35:59;100528.13;;;19.78;64.99
16190;BME280;41754;51.498;7.540;2023-06-22T04:38:27;100530.63;;;19.79;64.39
16190;BME280;41754;51.498;7.540;2023-06-22T04:40:55;100528.25;;;19.94;64.13
16190;BME280;41754;51.498;7.540;2023-06-22T04:43:23;100532.63;;;20.04;64.28
16190;BME280;41754;51.498;7.540;2023-06-22T04:45:51;100541.97;;;19.99;63.94
16190;BME280;41754;51.498;7.540;2023-06-22T04:48:19;100541.63;;;20.02;64.11
16190;BME280;41754;51.498;7.540;2023-06-22T04:50:48;100533.69;;;20.11;64.06
16190;BME280;41754;51.498;7.540;2023-06-22T04:53:16;100529.72;;;20.15;64.72
16190;BME280;41754;51.498;7.540;2023-06-22T04:55:44;100526.16;;;20.06;64.32
16190;BME280;41754;51.498;7.540;2023-06-22T04:58:12;100527.16;;;19.87;64.16
16190;BME280;41754;51.498;7.540;2023-06-22T05:00:40;100530.09;;;19.76;64.20
16190;BME280;41754;51.498;7.540;2023-06-22T05:03:11;100530.91;;;19.58;64.60
16190;BME280;41754;51.498;7.540;2023-06-22T05:05:46;100530.66;;;19.52;65.18
16190;BME280;41754;51.498;7.540;2023-06-22T05:08:17;100540.00;;;19.83;64.12
16190;BME280;41754;51.498;7.540;2023-06-22T05:10:45;100533.47;;;20.04;63.49
16190;BME280;41754;51.498;7.540;2023-06-22T05:13:30;100535.63;;;20.00;63.74
16190;BME280;41754;51.498;7.540;2023-06-22T05:15:58;100539.97;;;20.01;63.59
16190;BME280;41754;51.498;7.540;2023-06-22T05:18:28;100538.28;;;20.00;63.89
16190;BME280;41754;51.498;7.540;2023-06-22T05:20:57;100540.19;;;20.08;64.13
16190;BME280;41754;51.498;7.540;2023-06-22T05:23:27;100541.63;;;20.02;64.48
16190;BME280;41754;51.498;7.540;2023-06-22T05:25:55;100541.97;;;19.99;65.38
16190;BME280;41754;51.498;7.540;2023-06-22T05:28:24;100540.41;;;20.15;64.72
16190;BME280;41754;51.498;7.540;2023-06-22T05:30:52;100535.97;;;20.06;63.18
16190;BME280;41754;51.498;7.540;2023-06-22T05:33:20;100535.78;;;20.25;62.69
16190;BME280;41754;51.498;7.540;2023-06-22T05:35:48;100540.41;;;20.15;63.16
16190;BME280;41754;51.498;7.540;2023-06-22T05:38:16;100544.94;;;20.23;62.95
16190;BME280;41754;51.498;7.540;2023-06-22T05:40:45;100538.78;;;20.22;63.03
16190;BME280;41754;51.498;7.540;2023-06-22T05:43:13;100546.47;;;20.25;62.86
16190;BME280;41754;51.498;7.540;2023-06-22T05:45:41;100542.63;;;20.19;64.13
16190;BME280;41754;51.498;7.540;2023-06-22T05:48:09;100549.31;;;20.24;64.34
16190;BME280;41754;51.498;7.540;2023-06-22T05:50:37;100544.38;;;20.11;65.35
16190;BME280;41754;51.498;7.540;2023-06-22T05:53:04;100539.97;;;20.01;66.38
16190;BME280;41754;51.498;7.540;2023-06-22T05:55:33;100539.16;;;20.01;66.80
16190;BME280;41754;51.498;7.540;2023-06-22T05:58:02;100538.72;;;20.14;67.27
16190;BME280;41754;51.498;7.540;2023-06-22T06:00:31;100540.25;;;20.16;66.70
16190;BME280;41754;51.498;7.540;2023-06-22T06:02:59;100541.13;;;20.25;67.05
16190;BME280;41754;51.498;7.540;2023-06-22T06:05:30;100546.78;;;20.22;67.15
16190;BME280;41754;51.498;7.540;2023-06-22T06:07:58;100548.84;;;20.28;67.67
16190;BME280;41754;51.498;7.540;2023-06-22T06:10:26;100553.50;;;20.26;67.50
16190;BME280;41754;51.498;7.540;2023-06-22T06:12:54;100549.41;;;20.14;67.92
16190;BME280;41754;51.498;7.540;2023-06-22T06:15:24;100543.34;;;20.30;67.49
16190;BME280;41754;51.498;7.540;2023-06-22T06:17:52;100549.72;;;20.37;67.55
16190;BME280;41754;51.498;7.540;2023-06-22T06:20:22;100541.50;;;20.30;67.92
16190;BME280;41754;51.498;7.540;2023-06-22T06:22:50;100538.38;;;20.35;67.96
16190;BME280;41754;51.498;7.540;2023-06-22T06:25:18;100539.09;;;20.19;68.77
16190;BME280;41754;51.498;7.540;2023-06-22T06:27:49;100532.66;;;20.30;68.40
16190;BME280;41754;51.498;7.540;2023-06-22T06:30:18;100532.22;;;20.43;68.01
16190;BME280;41754;51.498;7.540;2023-06-22T06:32:47;100530.44;;;20.51;68.36
16190;BME280;41754;51.498;7.540;2023-06-22T06:35:16;100533.75;;;20.80;67.81
16190;BME280;41754;51.498;7.540;2023-06-22T06:37:46;100533.31;;;20.92;67.87
16190;BME280;41754;51.498;7.540;2023-06-22T06:40:14;100521.91;;;20.82;67.84
16190;BME280;41754;51.498;7.540;2023-06-22T06:42:44;100521.59;;;20.85;68.08
16190;BME280;41754;51.498;7.540;2023-06-22T06:45:14;100512.47;;;21.12;67.86
16190;BME280;41754;51.498;7.540;2023-06-22T06:47:42;100517.38;;;21.25;67.40
16190;BME280;41754;51.498;7.540;2023-06-22T06:50:12;100522.91;;;21.32;67.21
16190;BME280;41754;51.498;7.540;2023-06-22T06:52:40;100528.09;;;21.42;66.40
16190;BME280;41754;51.498;7.540;2023-06-22T06:55:08;100530.97;;;21.65;65.60
16190;BME280;41754;51.498;7.540;2023-06-22T06:57:39;100532.00;;;21.64;66.11
16190;BME280;41754;51.498;7.540;2023-06-22T07:00:09;100522.28;;;21.88;65.16
16190;BME280;41754;51.498;7.540;2023-06-22T07:02:39;100516.59;;;21.91;65.44
16190;BME280;41754;51.498;7.540;2023-06-22T07:05:08;100532.47;;;22.17;64.35
16190;BME280;41754;51.498;7.540;2023-06-22T07:07:37;100530.66;;;22.09;64.94
16190;BME280;41754;51.498;7.540;2023-06-22T07:10:06;100530.66;;;22.09;64.18
16190;BME280;41754;51.498;7.540;2023-06-22T07:12:34;100532.66;;;22.07;63.62
16190;BME280;41754;51.498;7.540;2023-06-22T07:15:03;100525.78;;;22.13;63.75
16190;BME280;41754;51.498;7.540;2023-06-22T07:17:31;100522.13;;;21.81;64.97
16190;BME280;41754;51.498;7.540;2023-06-22T07:20:00;100523.63;;;21.92;64.99
16190;BME280;41754;51.498;7.540;2023-06-22T07:22:28;100522.94;;;21.81;65.13
16190;BME280;41754;51.498;7.540;2023-06-22T07:24:57;100526.28;;;21.92;64.97
16190;BME280;41754;51.498;7.540;2023-06-22T07:27:25;100519.28;;;21.74;64.74
16190;BME280;41754;51.498;7.540;2023-06-22T07:29:53;100513.84;;;21.41;65.40
16190;BME280;41754;51.498;7.540;2023-06-22T07:32:21;100513.91;;;21.58;65.03
16190;BME280;41754;51.498;7.540;2023-06-22T07:34:49;100511.50;;;21.38;65.99
16190;BME280;41754;51.498;7.540;2023-06-22T07:37:17;100505.47;;;21.28;66.49
16190;BME280;41754;51.498;7.540;2023-06-22T07:39:45;100508.03;;;21.46;65.92
16190;BME280;41754;51.498;7.540;2023-06-22T07:42:15;100505.66;;;21.35;66.26
16190;BME280;41754;51.498;7.540;2023-06-22T07:44:45;100503.31;;;21.23;65.88
16190;BME280;41754;51.498;7.540;2023-06-22T07:47:13;100508.28;;;21.18;65.95
16190;BME280;41754;51.498;7.540;2023-06-22T07:49:40;100496.13;;;21.32;65.86
16190;BME280;41754;51.498;7.540;2023-06-22T07:52:08;100495.44;;;21.38;65.77
16190;BME280;41754;51.498;7.540;2023-06-22T07:54:37;100487.81;;;21.60;65.27
16190;BME280;41754;51.498;7.540;2023-06-22T07:57:05;100487.47;;;21.79;65.15
16190;BME280;41754;51.498;7.540;2023-06-22T07:59:34;100496.16;;;21.98;64.50
16190;BME280;41754;51.498;7.540;2023-06-22T08:02:03;100487.13;;;21.82;64.69
16190;BME280;41754;51.498;7.540;2023-06-22T08:04:31;100483.28;;;21.77;64.90
16190;BME280;41754;51.498;7.540;2023-06-22T08:07:01;100476.91;;;21.86;65.27
16190;BME280;41754;51.498;7.540;2023-06-22T08:09:31;100478.94;;;21.92;64.89
16190;BME280;41754;51.498;7.540;2023-06-22T08:11:59;100473.88;;;22.14;63.74
16190;BME280;41754;51.498;7.540;2023-06-22T08:14:27;100473.72;;;21.99;64.26
16190;BME280;41754;51.498;7.540;2023-06-22T08:16:57;100462.56;;;22.43;63.95
16190;BME280;41754;51.498;7.540;2023-06-22T08:19:24;100458.72;;;22.77;63.54
16190;BME280;41754;51.498;7.540;2023-06-22T08:21:52;100453.97;;;22.87;62.36
16190;BME280;41754;51.498;7.540;2023-06-22T08:24:20;100453.78;;;23.20;61.04
16190;BME280;41754;51.498;7.540;2023-06-22T08:26:51;100457.25;;;23.52;61.41
16190;BME280;41754;51.498;7.540;2023-06-22T08:29:18;100459.53;;;23.40;60.73
16190;BME280;41754;51.498;7.540;2023-06-22T08:31:46;100460.06;;;23.36;60.70
16190;BME280;41754;51.498;7.540;2023-06-22T08:34:16;100460.16;;;23.65;59.41
16190;BME280;41754;51.498;7.540;2023-06-22T08:36:44;100453.88;;;23.73;60.07
16190;BME280;41754;51.498;7.540;2023-06-22T08:39:18;100448.56;;;23.65;59.27
16190;BME280;41754;51.498;7.540;2023-06-22T08:41:46;100448.19;;;23.53;60.46
16190;BME280;41754;51.498;7.540;2023-06-22T08:44:18;100445.31;;;23.69;60.48
16190;BME280;41754;51.498;7.540;2023-06-22T08:46:46;100441.03;;;24.28;58.02
16190;BME280;41754;51.498;7.540;2023-06-22T08:49:19;100446.88;;;24.61;57.90
16190;BME280;41754;51.498;7.540;2023-06-22T08:51:46;100441.13;;;24.20;58.13
16190;BME280;41754;51.498;7.540;2023-06-22T08:54:15;100432.69;;;24.23;58.29
16190;BME280;41754;51.498;7.540;2023-06-22T08:56:43;100431.13;;;24.29;57.83
16190;BME280;41754;51.498;7.540;2023-06-22T08:59:11;100431.78;;;24.60;57.89
16190;BME280;41754;51.498;7.540;2023-06-22T09:01:39;100430.47;;;25.14;56.53
16190;BME280;41754;51.498;7.540;2023-06-22T09:04:07;100422.28;;;25.23;56.06
16190;BME280;41754;51.498;7.540;2023-06-22T09:06:38;100422.03;;;25.17;56.65
16190;BME280;41754;51.498;7.540;2023-06-22T09:09:12;100407.22;;;25.28;55.81
16190;BME280;41754;51.498;7.540;2023-06-22T09:11:40;100402.78;;;25.21;55.86
16190;BME280;41754;51.498;7.540;2023-06-22T09:14:08;100405.63;;;25.62;55.62
16190;BME280;41754;51.498;7.540;2023-06-22T09:16:36;100394.13;;;25.75;54.78
16190;BME280;41754;51.498;7.540;2023-06-22T09:19:04;100402.88;;;25.55;54.94
16190;BME280;41754;51.498;7.540;2023-06-22T09:21:32;100397.88;;;25.81;54.50
16190;BME280;41754;51.498;7.540;2023-06-22T09:24:02;100409.88;;;26.06;52.61
16190;BME280;41754;51.498;7.540;2023-06-22T09:26:30;100412.00;;;26.11;52.72
16190;BME280;41754;51.498;7.540;2023-06-22T09:28:58;100396.22;;;26.56;51.69
16190;BME280;41754;51.498;7.540;2023-06-22T09:31:25;100398.38;;;26.94;52.10
16190;BME280;41754;51.498;7.540;2023-06-22T09:33:54;100397.97;;;26.91;51.70
16190;BME280;41754;51.498;7.540;2023-06-22T09:36:22;100394.69;;;27.09;50.10
16190;BME280;41754;51.498;7.540;2023-06-22T09:38:50;100393.63;;;27.16;49.76
16190;BME280;41754;51.498;7.540;2023-06-22T09:41:26;100390.09;;;27.02;50.50
16190;BME280;41754;51.498;7.540;2023-06-22T09:43:54;100392.78;;;27.02;51.20
16190;BME280;41754;51.498;7.540;2023-06-22T09:46:22;100375.56;;;27.17;49.54
16190;BME280;41754;51.498;7.540;2023-06-22T09:48:52;100363.09;;;26.96;51.47
16190;BME280;41754;51.498;7.540;2023-06-22T09:51:20;100363.94;;;27.36;51.26
16190;BME280;41754;51.498;7.540;2023-06-22T09:53:48;100357.31;;;27.39;50.15
16190;BME280;41754;51.498;7.540;2023-06-22T09:56:16;100357.47;;;27.24;50.78
16190;BME280;41754;51.498;7.540;2023-06-22T09:58:46;100352.19;;;26.62;53.27
16190;BME280;41754;51.498;7.540;2023-06-22T10:01:18;100353.56;;;27.07;52.57
16190;BME280;41754;51.498;7.540;2023-06-22T10:03:47;100353.97;;;27.50;50.91
16190;BME280;41754;51.498;7.540;2023-06-22T10:06:15;100343.56;;;27.54;50.53
16190;BME280;41754;51.498;7.540;2023-06-22T10:08:43;100346.44;;;27.72;50.95
16190;BME280;41754;51.498;7.540;2023-06-22T10:11:10;100357.03;;;27.74;50.88
16190;BME280;41754;51.498;7.540;2023-06-22T10:13:38;100349.69;;;28.01;50.80
16190;BME280;41754;51.498;7.540;2023-06-22T10:16:07;100349.56;;;27.69;50.46
16190;BME280;41754;51.498;7.540;2023-06-22T10:18:35;100344.72;;;27.85;50.11
16190;BME280;41754;51.498;7.540;2023-06-22T10:21:13;100343.63;;;28.12;50.06
16190;BME280;41754;51.498;7.540;2023-06-22T10:23:42;100353.16;;;28.22;50.34
16190;BME280;41754;51.498;7.540;2023-06-22T10:26:09;100347.09;;;28.26;50.24
16190;BME280;41754;51.498;7.540;2023-06-22T10:28:37;100344.38;;;28.33;49.12
16190;BME280;41754;51.498;7.540;2023-06-22T10:31:05;100330.91;;;28.20;49.16
16190;BME280;41754;51.498;7.540;2023-06-22T10:33:34;100316.78;;;28.49;49.42
16190;BME280;41754;51.498;7.540;2023-06-22T10:36:02;100316.81;;;28.81;49.10
16190;BME280;41754;51.498;7.540;2023-06-22T10:38:31;100320.78;;;29.04;47.36
16190;BME280;41754;51.498;7.540;2023-06-22T10:40:58;100314.13;;;29.07;47.55
16190;BME280;41754;51.498;7.540;2023-06-22T10:43:26;100305.69;;;29.40;47.54
16190;BME280;41754;51.498;7.540;2023-06-22T10:45:54;100305.44;;;28.98;47.44
16190;BME280;41754;51.498;7.540;2023-06-22T10:48:22;100304.63;;;28.65;47.83
16190;BME280;41754;51.498;7.540;2023-06-22T10:50:51;100305.88;;;28.95;48.23
16190;BME280;41754;51.498;7.540;2023-06-22T10:53:19;100303.84;;;28.20;48.77
16190;BME280;41754;51.498;7.540;2023-06-22T10:55:47;100303.53;;;27.96;50.04
16190;BME280;41754;51.498;7.540;2023-06-22T10:58:23;100299.81;;;27.97;49.24
16190;BME280;41754;51.498;7.540;2023-06-22T11:00:51;100289.13;;;28.09;47.92
16190;BME280;41754;51.498;7.540;2023-06-22T11:03:19;100293.13;;;28.00;48.21
16190;BME280;41754;51.498;7.540;2023-06-22T11:05:47;100294.41;;;27.97;48.90
16190;BME280;41754;51.498;7.540;2023-06-22T11:08:16;100298.06;;;27.44;48.82
16190;BME280;41754;51.498;7.540;2023-06-22T11:10:44;100297.03;;;27.25;49.56
16190;BME280;41754;51.498;7.540;2023-06-22T11:13:11;100308.66;;;27.06;49.42
16190;BME280;41754;51.498;7.540;2023-06-22T11:15:39;100328.31;;;26.59;50.87
16190;BME280;41754;51.498;7.540;2023-06-22T11:18:07;100344.72;;;26.58;51.22
16190;BME280;41754;51.498;7.540;2023-06-22T11:20:35;100358.56;;;26.35;52.26
16190;BME280;41754;51.498;7.540;2023-06-22T11:23:05;100371.56;;;26.11;54.08
16190;BME280;41754;51.498;7.540;2023-06-22T11:25:35;100379.25;;;25.86;55.47
16190;BME280;41754;51.498;7.540;2023-06-22T11:28:04;100375.53;;;25.59;57.39
16190;BME280;41754;51.498;7.540;2023-06-22T11:30:32;100382.28;;;25.19;59.52
16190;BME280;41754;51.498;7.540;2023-06-22T11:33:00;100378.69;;;24.91;61.42
16190;BME280;41754;51.498;7.540;2023-06-22T11:35:28;100371.00;;;24.66;64.06
16190;BME280;41754;51.498;7.540;2023-06-22T11:37:56;100355.34;;;24.40;66.38
16190;BME280;41754;51.498;7.540;2023-06-22T11:40:25;100355.34;;;24.03;68.22
16190;BME280;41754;51.498;7.540;2023-06-22T11:42:54;100346.50;;;23.80;69.53
16190;BME280;41754;51.498;7.540;2023-06-22T11:45:22;100349.56;;;23.62;69.08
16190;BME280;41754;51.498;7.540;2023-06-22T11:47:50;100347.22;;;23.44;71.16
16190;BME280;41754;51.498;7.540;2023-06-22T11:50:18;100334.22;;;23.32;73.03
16190;BME280;41754;51.498;7.540;2023-06-22T11:52:46;100335.63;;;23.05;74.58
16190;BME280;41754;51.498;7.540;2023-06-22T11:55:13;100334.38;;;22.93;75.77
16190;BME280;41754;51.498;7.540;2023-06-22T11:57:53;100333.81;;;22.83;76.24
16190;BME280;41754;51.498;7.540;2023-06-22T12:00:22;100340.34;;;22.80;75.08
16190;BME280;41754;51.498;7.540;2023-06-22T12:02:55;100341.44;;;22.71;75.99
16190;BME280;41754;51.498;7.540;2023-06-22T12:05:26;100334.84;;;22.50;77.55
16190;BME280;41754;51.498;7.540;2023-06-22T12:07:54;100338.56;;;22.49;77.92
16190;BME280;41754;51.498;7.540;2023-06-22T12:10:22;100336.59;;;22.35;78.44
16190;BME280;41754;51.498;7.540;2023-06-22T12:12:51;100335.97;;;22.24;78.67
16190;BME280;41754;51.498;7.540;2023-06-22T12:15:19;100340.44;;;22.01;79.42
16190;BME280;41754;51.498;7.540;2023-06-22T12:17:48;100336.66;;;21.79;80.39
16190;BME280;41754;51.498;7.540;2023-06-22T12:20:16;100329.97;;;21.75;81.10
16190;BME280;41754;51.498;7.540;2023-06-22T12:22:44;100342.34;;;21.76;81.09
16190;BME280;41754;51.498;7.540;2023-06-22T12:25:12;100335.19;;;21.68;81.30
16190;BME280;41754;51.498;7.540;2023-06-22T12:27:40;100328.34;;;21.65;80.48
16190;BME280;41754;51.498;7.540;2023-06-22T12:30:08;100322.50;;;21.45;81.60
16190;BME280;41754;51.498;7.540;2023-06-22T12:32:36;100334.84;;;21.46;81.83
16190;BME280;41754;51.498;7.540;2023-06-22T12:35:06;100347.25;;;21.39;81.46
16190;BME280;41754;51.498;7.540;2023-06-22T12:37:40;100354.94;;;21.42;80.96
16190;BME280;41754;51.498;7.540;2023-06-22T12:40:09;100355.78;;;21.35;81.58
16190;BME280;41754;51.498;7.540;2023-06-22T12:42:37;100322.66;;;21.36;82.10
16190;BME280;41754;51.498;7.540;2023-06-22T12:45:06;100281.34;;;21.38;82.36
16190;BME280;41754;51.498;7.540;2023-06-22T12:47:34;100241.25;;;21.30;82.83
16190;BME280;41754;51.498;7.540;2023-06-22T12:50:02;100227.16;;;21.28;83.40
16190;BME280;41754;51.498;7.540;2023-06-22T12:52:31;100192.22;;;21.29;83.78
16190;BME280;41754;51.498;7.540;2023-06-22T12:54:59;100175.34;;;21.29;82.75
16190;BME280;41754;51.498;7.540;2023-06-22T12:57:27;100174.38;;;21.22;82.05
16190;BME280;41754;51.498;7.540;2023-06-22T12:59:55;100183.50;;;21.36;82.33